Terminal Aerodrome Forecast
Issued by NWS

Home | Current Version | Previous Version | Text Only | Print | Product List | Glossary On
Versions: 1 2 3 4 5 6 7 8 9 10 11 12 13 14 15
000
FTPA31 PHFO 221120
TAFHMK
TAF
PHMK 221120Z 2212/2312 04009G16KT P6SM FEW025 SCT045
     FM222000 04015G24KT P6SM FEW025 SCT050
     FM230500 04012KT P6SM FEW025 SCT045=

USA.gov is the U.S. government's official web portal to all federal, state and local government web resources and services.